sensor_id;sensor_type;location;lat;lon;timestamp;pressure;altitude;pressure_sealevel;temperature;humidity
17521;BME280;8878;-33.370;-70.552;2023-07-29T00:00:42;92278.69;;;17.58;45.15
17521;BME280;8878;-33.370;-70.552;2023-07-29T00:03:12;92278.13;;;17.62;44.88
17521;BME280;8878;-33.370;-70.552;2023-07-29T00:05:42;92273.53;;;17.62;45.88
17521;BME280;8878;-33.370;-70.552;2023-07-29T00:08:14;92282.28;;;17.54;48.78
17521;BME280;8878;-33.370;-70.552;2023-07-29T00:10:44;92292.53;;;17.38;49.52
17521;BME280;8878;-33.370;-70.552;2023-07-29T00:13:14;92282.22;;;17.23;49.42
17521;BME280;8878;-33.370;-70.552;2023-07-29T00:15:43;92276.94;;;17.09;49.62
17521;BME280;8878;-33.370;-70.552;2023-07-29T00:18:12;92278.16;;;17.03;49.43
17521;BME280;8878;-33.370;-70.552;2023-07-29T00:20:42;92272.63;;;17.00;49.51
17521;BME280;8878;-33.370;-70.552;2023-07-29T00:23:14;92272.25;;;16.93;49.82
17521;BME280;8878;-33.370;-70.552;2023-07-29T00:25:43;92274.63;;;16.94;49.94
17521;BME280;8878;-33.370;-70.552;2023-07-29T00:28:13;92281.53;;;16.95;49.21
17521;BME280;8878;-33.370;-70.552;2023-07-29T00:30:42;92277.94;;;17.00;48.88
17521;BME280;8878;-33.370;-70.552;2023-07-29T00:33:12;92285.66;;;17.01;49.88
17521;BME280;8878;-33.370;-70.552;2023-07-29T00:35:41;92282.31;;;16.96;50.58
17521;BME280;8878;-33.370;-70.552;2023-07-29T00:38:11;92282.34;;;16.82;49.87
17521;BME280;8878;-33.370;-70.552;2023-07-29T00:40:42;92274.81;;;16.84;49.04
17521;BME280;8878;-33.370;-70.552;2023-07-29T00:43:11;92266.75;;;16.89;49.04
17521;BME280;8878;-33.370;-70.552;2023-07-29T00:45:42;92264.75;;;16.95;50.11
17521;BME280;8878;-33.370;-70.552;2023-07-29T00:48:16;92270.88;;;16.95;50.68
17521;BME280;8878;-33.370;-70.552;2023-07-29T00:50:46;92272.16;;;16.84;50.46
17521;BME280;8878;-33.370;-70.552;2023-07-29T00:53:15;92275.16;;;16.82;49.50
17521;BME280;8878;-33.370;-70.552;2023-07-29T00:55:46;92299.91;;;16.83;48.77
17521;BME280;8878;-33.370;-70.552;2023-07-29T00:58:16;92345.31;;;16.78;48.30
17521;BME280;8878;-33.370;-70.552;2023-07-29T01:00:46;92351.00;;;16.85;47.11
17521;BME280;8878;-33.370;-70.552;2023-07-29T01:03:16;92350.81;;;16.95;45.81
17521;BME280;8878;-33.370;-70.552;2023-07-29T01:05:56;92334.31;;;16.93;46.62
17521;BME280;8878;-33.370;-70.552;2023-07-29T01:08:33;92330.59;;;16.80;47.34
17521;BME280;8878;-33.370;-70.552;2023-07-29T01:11:22;92328.91;;;16.84;46.93
17521;BME280;8878;-33.370;-70.552;2023-07-29T01:14:00;92342.06;;;16.81;47.78
17521;BME280;8878;-33.370;-70.552;2023-07-29T01:16:33;92341.66;;;16.74;48.43
17521;BME280;8878;-33.370;-70.552;2023-07-29T01:19:06;92343.34;;;16.70;48.79
17521;BME280;8878;-33.370;-70.552;2023-07-29T01:21:37;92331.00;;;16.74;49.06
17521;BME280;8878;-33.370;-70.552;2023-07-29T01:24:09;92334.47;;;16.74;48.64
17521;BME280;8878;-33.370;-70.552;2023-07-29T01:26:38;92332.69;;;16.70;48.77
17521;BME280;8878;-33.370;-70.552;2023-07-29T01:29:08;92331.50;;;16.76;48.93
17521;BME280;8878;-33.370;-70.552;2023-07-29T01:31:42;92318.97;;;16.76;51.59
17521;BME280;8878;-33.370;-70.552;2023-07-29T01:34:16;92305.06;;;16.52;53.05
17521;BME280;8878;-33.370;-70.552;2023-07-29T01:36:47;92304.69;;;16.31;52.15
17521;BME280;8878;-33.370;-70.552;2023-07-29T01:39:21;92294.72;;;16.23;50.26
17521;BME280;8878;-33.370;-70.552;2023-07-29T01:41:51;92299.84;;;16.33;49.12
17521;BME280;8878;-33.370;-70.552;2023-07-29T01:44:21;92305.97;;;16.48;48.74
17521;BME280;8878;-33.370;-70.552;2023-07-29T01:46:50;92290.56;;;16.58;48.18
17521;BME280;8878;-33.370;-70.552;2023-07-29T01:49:20;92286.72;;;16.64;47.82
17521;BME280;8878;-33.370;-70.552;2023-07-29T01:51:50;92279.50;;;16.65;47.67
17521;BME280;8878;-33.370;-70.552;2023-07-29T01:54:22;92270.16;;;16.67;47.61
17521;BME280;8878;-33.370;-70.552;2023-07-29T01:56:52;92267.19;;;16.69;47.72
17521;BME280;8878;-33.370;-70.552;2023-07-29T01:59:22;92256.34;;;16.65;47.32
17521;BME280;8878;-33.370;-70.552;2023-07-29T02:01:52;92255.75;;;16.68;47.54
17521;BME280;8878;-33.370;-70.552;2023-07-29T02:04:21;92254.53;;;16.74;47.10
17521;BME280;8878;-33.370;-70.552;2023-07-29T02:06:52;92237.94;;;16.77;46.96
17521;BME280;8878;-33.370;-70.552;2023-07-29T02:09:23;92223.72;;;16.82;46.89
17521;BME280;8878;-33.370;-70.552;2023-07-29T02:11:53;92216.22;;;16.84;47.03
17521;BME280;8878;-33.370;-70.552;2023-07-29T02:14:23;92197.69;;;16.79;46.75
17521;BME280;8878;-33.370;-70.552;2023-07-29T02:16:52;92196.44;;;16.76;46.87
17521;BME280;8878;-33.370;-70.552;2023-07-29T02:19:22;92199.97;;;16.72;47.19
17521;BME280;8878;-33.370;-70.552;2023-07-29T02:21:51;92185.69;;;16.68;46.97
17521;BME280;8878;-33.370;-70.552;2023-07-29T02:24:23;92187.28;;;16.69;46.60
17521;BME280;8878;-33.370;-70.552;2023-07-29T02:26:52;92218.44;;;16.68;46.16
17521;BME280;8878;-33.370;-70.552;2023-07-29T02:29:22;92259.88;;;16.74;44.46
17521;BME280;8878;-33.370;-70.552;2023-07-29T02:31:52;92275.63;;;16.84;45.79
17521;BME280;8878;-33.370;-70.552;2023-07-29T02:34:22;92285.13;;;16.63;46.83
17521;BME280;8878;-33.370;-70.552;2023-07-29T02:36:51;92295.88;;;16.58;47.44
17521;BME280;8878;-33.370;-70.552;2023-07-29T02:39:22;92327.75;;;16.50;48.46
17521;BME280;8878;-33.370;-70.552;2023-07-29T02:41:52;92359.69;;;16.22;50.67
17521;BME280;8878;-33.370;-70.552;2023-07-29T02:44:22;92363.50;;;15.89;52.52
17521;BME280;8878;-33.370;-70.552;2023-07-29T02:46:52;92341.91;;;15.77;53.33
17521;BME280;8878;-33.370;-70.552;2023-07-29T02:49:22;92344.63;;;15.72;53.39
17521;BME280;8878;-33.370;-70.552;2023-07-29T02:51:52;92367.06;;;15.65;54.34
17521;BME280;8878;-33.370;-70.552;2023-07-29T02:54:23;92352.69;;;15.66;54.68
17521;BME280;8878;-33.370;-70.552;2023-07-29T02:56:53;92359.22;;;15.74;54.84
17521;BME280;8878;-33.370;-70.552;2023-07-29T02:59:23;92368.09;;;15.70;54.54
17521;BME280;8878;-33.370;-70.552;2023-07-29T03:01:53;92374.38;;;15.74;54.19
17521;BME280;8878;-33.370;-70.552;2023-07-29T03:04:23;92378.84;;;15.92;53.70
17521;BME280;8878;-33.370;-70.552;2023-07-29T03:06:52;92377.31;;;15.91;53.70
17521;BME280;8878;-33.370;-70.552;2023-07-29T03:09:25;92369.13;;;16.01;53.27
17521;BME280;8878;-33.370;-70.552;2023-07-29T03:11:55;92380.69;;;16.10;53.44
17521;BME280;8878;-33.370;-70.552;2023-07-29T03:14:25;92371.41;;;16.08;54.71
17521;BME280;8878;-33.370;-70.552;2023-07-29T03:16:55;92361.53;;;15.94;55.12
17521;BME280;8878;-33.370;-70.552;2023-07-29T03:19:25;92361.22;;;15.82;55.72
17521;BME280;8878;-33.370;-70.552;2023-07-29T03:21:54;92372.22;;;15.76;55.91
17521;BME280;8878;-33.370;-70.552;2023-07-29T03:24:25;92386.81;;;15.78;53.57
17521;BME280;8878;-33.370;-70.552;2023-07-29T03:26:55;92372.66;;;15.83;54.66
17521;BME280;8878;-33.370;-70.552;2023-07-29T03:29:25;92325.56;;;15.83;54.83
17521;BME280;8878;-33.370;-70.552;2023-07-29T03:31:55;92301.69;;;15.78;54.42
17521;BME280;8878;-33.370;-70.552;2023-07-29T03:34:24;92298.34;;;15.86;52.84
17521;BME280;8878;-33.370;-70.552;2023-07-29T03:36:54;92291.78;;;15.97;52.89
17521;BME280;8878;-33.370;-70.552;2023-07-29T03:39:25;92286.13;;;15.99;52.57
17521;BME280;8878;-33.370;-70.552;2023-07-29T03:41:55;92286.53;;;16.06;51.48
17521;BME280;8878;-33.370;-70.552;2023-07-29T03:44:24;92274.78;;;16.21;49.98
17521;BME280;8878;-33.370;-70.552;2023-07-29T03:46:54;92279.50;;;16.51;47.55
17521;BME280;8878;-33.370;-70.552;2023-07-29T03:49:23;92278.63;;;16.69;47.60
17521;BME280;8878;-33.370;-70.552;2023-07-29T03:51:53;92274.78;;;16.75;47.11
17521;BME280;8878;-33.370;-70.552;2023-07-29T03:54:24;92271.44;;;16.92;46.29
17521;BME280;8878;-33.370;-70.552;2023-07-29T03:56:54;92271.94;;;16.94;45.11
17521;BME280;8878;-33.370;-70.552;2023-07-29T03:59:23;92275.94;;;17.05;42.96
17521;BME280;8878;-33.370;-70.552;2023-07-29T04:01:53;92252.38;;;17.21;43.17
17521;BME280;8878;-33.370;-70.552;2023-07-29T04:04:22;92250.22;;;17.23;42.97
17521;BME280;8878;-33.370;-70.552;2023-07-29T04:06:51;92259.59;;;17.20;44.10
17521;BME280;8878;-33.370;-70.552;2023-07-29T04:09:21;92258.44;;;17.13;44.86
17521;BME280;8878;-33.370;-70.552;2023-07-29T04:11:52;92264.03;;;17.03;45.36
17521;BME280;8878;-33.370;-70.552;2023-07-29T04:14:23;92257.25;;;16.97;45.05
17521;BME280;8878;-33.370;-70.552;2023-07-29T04:16:52;92266.50;;;16.99;45.25
17521;BME280;8878;-33.370;-70.552;2023-07-29T04:19:22;92274.19;;;17.01;45.62
17521;BME280;8878;-33.370;-70.552;2023-07-29T04:21:51;92274.63;;;16.94;45.60
17521;BME280;8878;-33.370;-70.552;2023-07-29T04:24:22;92273.44;;;16.87;46.39
17521;BME280;8878;-33.370;-70.552;2023-07-29T04:26:53;92280.19;;;16.70;46.80
17521;BME280;8878;-33.370;-70.552;2023-07-29T04:29:23;92287.00;;;16.63;46.73
17521;BME280;8878;-33.370;-70.552;2023-07-29T04:31:52;92283.34;;;16.59;46.65
17521;BME280;8878;-33.370;-70.552;2023-07-29T04:34:23;92300.69;;;16.56;46.77
17521;BME280;8878;-33.370;-70.552;2023-07-29T04:36:52;92304.94;;;16.57;46.89
17521;BME280;8878;-33.370;-70.552;2023-07-29T04:39:22;92294.78;;;16.59;46.91
17521;BME280;8878;-33.370;-70.552;2023-07-29T04:41:53;92289.97;;;16.75;44.09
17521;BME280;8878;-33.370;-70.552;2023-07-29T04:44:24;92288.66;;;16.86;44.86
17521;BME280;8878;-33.370;-70.552;2023-07-29T04:46:53;92288.06;;;16.89;45.48
17521;BME280;8878;-33.370;-70.552;2023-07-29T04:49:23;92273.66;;;16.90;45.48
17521;BME280;8878;-33.370;-70.552;2023-07-29T04:51:52;92282.22;;;16.87;46.05
17521;BME280;8878;-33.370;-70.552;2023-07-29T04:54:22;92282.16;;;16.78;47.53
17521;BME280;8878;-33.370;-70.552;2023-07-29T04:56:53;92280.41;;;16.60;48.53
17521;BME280;8878;-33.370;-70.552;2023-07-29T04:59:22;92298.38;;;16.41;47.35
17521;BME280;8878;-33.370;-70.552;2023-07-29T05:01:52;92313.16;;;16.20;48.96
17521;BME280;8878;-33.370;-70.552;2023-07-29T05:04:21;92315.72;;;15.97;51.33
17521;BME280;8878;-33.370;-70.552;2023-07-29T05:06:51;92319.84;;;15.90;51.76
17521;BME280;8878;-33.370;-70.552;2023-07-29T05:09:21;92324.34;;;15.76;51.86
17521;BME280;8878;-33.370;-70.552;2023-07-29T05:11:52;92321.28;;;15.69;52.39
17521;BME280;8878;-33.370;-70.552;2023-07-29T05:14:21;92318.50;;;15.60;52.88
17521;BME280;8878;-33.370;-70.552;2023-07-29T05:16:51;92313.78;;;15.38;54.23
17521;BME280;8878;-33.370;-70.552;2023-07-29T05:19:21;92309.09;;;15.30;55.38
17521;BME280;8878;-33.370;-70.552;2023-07-29T05:21:50;92311.53;;;15.13;56.51
17521;BME280;8878;-33.370;-70.552;2023-07-29T05:24:20;92319.19;;;15.14;56.37
17521;BME280;8878;-33.370;-70.552;2023-07-29T05:26:50;92317.44;;;15.23;56.18
17521;BME280;8878;-33.370;-70.552;2023-07-29T05:29:21;92321.59;;;15.29;56.20
17521;BME280;8878;-33.370;-70.552;2023-07-29T05:31:50;92323.75;;;15.27;57.20
17521;BME280;8878;-33.370;-70.552;2023-07-29T05:34:20;92316.94;;;15.21;56.97
17521;BME280;8878;-33.370;-70.552;2023-07-29T05:36:50;92307.56;;;15.10;57.12
17521;BME280;8878;-33.370;-70.552;2023-07-29T05:39:19;92303.47;;;14.99;57.89
17521;BME280;8878;-33.370;-70.552;2023-07-29T05:41:49;92308.59;;;14.77;58.94
17521;BME280;8878;-33.370;-70.552;2023-07-29T05:44:20;92310.03;;;14.69;58.49
17521;BME280;8878;-33.370;-70.552;2023-07-29T05:46:49;92308.00;;;14.80;57.33
17521;BME280;8878;-33.370;-70.552;2023-07-29T05:49:19;92308.66;;;14.91;56.32
17521;BME280;8878;-33.370;-70.552;2023-07-29T05:51:48;92298.50;;;14.93;56.57
17521;BME280;8878;-33.370;-70.552;2023-07-29T05:54:19;92297.53;;;14.88;56.96
17521;BME280;8878;-33.370;-70.552;2023-07-29T05:56:49;92282.66;;;14.87;56.85
17521;BME280;8878;-33.370;-70.552;2023-07-29T05:59:20;92294.22;;;14.78;57.43
17521;BME280;8878;-33.370;-70.552;2023-07-29T06:01:49;92284.97;;;14.75;56.83
17521;BME280;8878;-33.370;-70.552;2023-07-29T06:04:19;92283.03;;;14.81;56.90
17521;BME280;8878;-33.370;-70.552;2023-07-29T06:06:49;92285.41;;;14.82;57.03
17521;BME280;8878;-33.370;-70.552;2023-07-29T06:09:18;92281.00;;;14.73;56.93
17521;BME280;8878;-33.370;-70.552;2023-07-29T06:11:48;92281.38;;;14.66;56.59
17521;BME280;8878;-33.370;-70.552;2023-07-29T06:14:17;92269.41;;;14.69;56.46
17521;BME280;8878;-33.370;-70.552;2023-07-29T06:16:49;92264.78;;;14.74;55.84
17521;BME280;8878;-33.370;-70.552;2023-07-29T06:19:19;92264.94;;;14.83;55.69
17521;BME280;8878;-33.370;-70.552;2023-07-29T06:21:49;92264.94;;;14.83;54.94
17521;BME280;8878;-33.370;-70.552;2023-07-29T06:24:18;92279.00;;;14.83;54.64
17521;BME280;8878;-33.370;-70.552;2023-07-29T06:26:49;92281.03;;;14.92;54.49
17521;BME280;8878;-33.370;-70.552;2023-07-29T06:29:19;92272.69;;;14.98;54.76
17521;BME280;8878;-33.370;-70.552;2023-07-29T06:31:50;92267.75;;;14.92;55.16
17521;BME280;8878;-33.370;-70.552;2023-07-29T06:34:20;92267.31;;;14.84;54.76
17521;BME280;8878;-33.370;-70.552;2023-07-29T06:36:49;92272.81;;;14.88;55.78
17521;BME280;8878;-33.370;-70.552;2023-07-29T06:39:19;92274.50;;;14.84;56.12
17521;BME280;8878;-33.370;-70.552;2023-07-29T06:41:48;92275.94;;;14.76;55.02
17521;BME280;8878;-33.370;-70.552;2023-07-29T06:44:17;92262.94;;;14.75;56.29
17521;BME280;8878;-33.370;-70.552;2023-07-29T06:46:47;92263.66;;;14.62;56.72
17521;BME280;8878;-33.370;-70.552;2023-07-29T06:49:18;92262.63;;;14.58;55.58
17521;BME280;8878;-33.370;-70.552;2023-07-29T06:51:47;92267.59;;;14.64;54.40
17521;BME280;8878;-33.370;-70.552;2023-07-29T06:54:17;92272.25;;;14.72;55.14
17521;BME280;8878;-33.370;-70.552;2023-07-29T06:56:47;92265.22;;;14.63;55.29
17521;BME280;8878;-33.370;-70.552;2023-07-29T06:59:16;92266.78;;;14.64;54.26
17521;BME280;8878;-33.370;-70.552;2023-07-29T07:01:46;92251.88;;;14.68;53.02
17521;BME280;8878;-33.370;-70.552;2023-07-29T07:04:17;92242.03;;;14.68;52.85
17521;BME280;8878;-33.370;-70.552;2023-07-29T07:06:47;92249.38;;;14.76;52.69
17521;BME280;8878;-33.370;-70.552;2023-07-29T07:09:16;92242.66;;;14.79;53.40
17521;BME280;8878;-33.370;-70.552;2023-07-29T07:11:46;92240.31;;;14.77;53.25
17521;BME280;8878;-33.370;-70.552;2023-07-29T07:14:16;92244.13;;;14.71;53.41
17521;BME280;8878;-33.370;-70.552;2023-07-29T07:16:45;92248.72;;;14.66;53.90
17521;BME280;8878;-33.370;-70.552;2023-07-29T07:19:15;92234.22;;;14.58;54.20
17521;BME280;8878;-33.370;-70.552;2023-07-29T07:21:46;92236.44;;;14.51;54.21
17521;BME280;8878;-33.370;-70.552;2023-07-29T07:24:15;92239.47;;;14.44;54.57
17521;BME280;8878;-33.370;-70.552;2023-07-29T07:26:45;92240.06;;;14.36;54.97
17521;BME280;8878;-33.370;-70.552;2023-07-29T07:29:14;92234.13;;;14.26;54.92
17521;BME280;8878;-33.370;-70.552;2023-07-29T07:31:50;92246.56;;;14.06;54.88
17521;BME280;8878;-33.370;-70.552;2023-07-29T07:34:20;92252.09;;;13.86;54.91
17521;BME280;8878;-33.370;-70.552;2023-07-29T07:36:52;92253.69;;;13.87;54.95
17521;BME280;8878;-33.370;-70.552;2023-07-29T07:39:21;92243.97;;;14.01;55.78
17521;BME280;8878;-33.370;-70.552;2023-07-29T07:41:51;92254.38;;;13.98;56.76
17521;BME280;8878;-33.370;-70.552;2023-07-29T07:44:20;92249.94;;;13.88;54.98
17521;BME280;8878;-33.370;-70.552;2023-07-29T07:46:49;92246.78;;;13.86;54.80
17521;BME280;8878;-33.370;-70.552;2023-07-29T07:49:19;92244.53;;;13.98;55.24
17521;BME280;8878;-33.370;-70.552;2023-07-29T07:51:50;92250.41;;;13.95;56.00
17521;BME280;8878;-33.370;-70.552;2023-07-29T07:54:20;92237.31;;;13.80;56.97
17521;BME280;8878;-33.370;-70.552;2023-07-29T07:56:49;92243.22;;;13.72;56.57
17521;BME280;8878;-33.370;-70.552;2023-07-29T07:59:19;92248.59;;;13.67;57.12
17521;BME280;8878;-33.370;-70.552;2023-07-29T08:01:48;92247.88;;;13.61;57.02
17521;BME280;8878;-33.370;-70.552;2023-07-29T08:04:19;92254.06;;;13.52;57.63
17521;BME280;8878;-33.370;-70.552;2023-07-29T08:06:50;92252.06;;;13.39;57.95
17521;BME280;8878;-33.370;-70.552;2023-07-29T08:09:20;92251.06;;;13.35;57.29
17521;BME280;8878;-33.370;-70.552;2023-07-29T08:11:49;92243.13;;;13.29;57.53
17521;BME280;8878;-33.370;-70.552;2023-07-29T08:14:19;92248.28;;;13.21;57.20
17521;BME280;8878;-33.370;-70.552;2023-07-29T08:16:49;92254.06;;;13.23;57.71
17521;BME280;8878;-33.370;-70.552;2023-07-29T08:19:18;92261.75;;;13.24;57.75
17521;BME280;8878;-33.370;-70.552;2023-07-29T08:21:48;92266.59;;;13.12;58.32
17521;BME280;8878;-33.370;-70.552;2023-07-29T08:24:19;92268.03;;;12.94;58.11
17521;BME280;8878;-33.370;-70.552;2023-07-29T08:26:48;92260.88;;;13.00;58.31
17521;BME280;8878;-33.370;-70.552;2023-07-29T08:29:18;92257.59;;;13.08;59.11
17521;BME280;8878;-33.370;-70.552;2023-07-29T08:31:47;92260.78;;;13.10;58.45
17521;BME280;8878;-33.370;-70.552;2023-07-29T08:34:18;92260.25;;;13.13;57.80
17521;BME280;8878;-33.370;-70.552;2023-07-29T08:36:47;92258.09;;;13.15;57.73
17521;BME280;8878;-33.370;-70.552;2023-07-29T08:39:18;92257.81;;;13.17;56.31
17521;BME280;8878;-33.370;-70.552;2023-07-29T08:41:54;92253.84;;;13.19;56.11
17521;BME280;8878;-33.370;-70.552;2023-07-29T08:44:29;92250.59;;;13.27;55.21
17521;BME280;8878;-33.370;-70.552;2023-07-29T08:47:00;92244.72;;;13.30;56.21
17521;BME280;8878;-33.370;-70.552;2023-07-29T08:49:30;92247.44;;;13.25;55.47
17521;BME280;8878;-33.370;-70.552;2023-07-29T08:52:00;92249.53;;;13.28;54.87
17521;BME280;8878;-33.370;-70.552;2023-07-29T08:54:31;92250.03;;;13.30;54.56
17521;BME280;8878;-33.370;-70.552;2023-07-29T08:57:01;92244.19;;;13.33;54.95
17521;BME280;8878;-33.370;-70.552;2023-07-29T08:59:31;92243.13;;;13.29;55.12
17521;BME280;8878;-33.370;-70.552;2023-07-29T09:02:02;92241.13;;;13.21;54.12
17521;BME280;8878;-33.370;-70.552;2023-07-29T09:04:31;92234.28;;;13.10;53.93
17521;BME280;8878;-33.370;-70.552;2023-07-29T09:07:01;92236.41;;;13.13;55.48
17521;BME280;8878;-33.370;-70.552;2023-07-29T09:09:33;92241.50;;;13.05;54.36
17521;BME280;8878;-33.370;-70.552;2023-07-29T09:12:02;92232.81;;;12.99;54.07
17521;BME280;8878;-33.370;-70.552;2023-07-29T09:14:32;92232.81;;;12.94;54.64
17521;BME280;8878;-33.370;-70.552;2023-07-29T09:17:01;92236.59;;;12.88;54.50
17521;BME280;8878;-33.370;-70.552;2023-07-29T09:19:33;92239.19;;;12.93;56.47
17521;BME280;8878;-33.370;-70.552;2023-07-29T09:22:03;92239.81;;;12.85;56.79
17521;BME280;8878;-33.370;-70.552;2023-07-29T09:24:35;92233.56;;;12.66;55.98
17521;BME280;8878;-33.370;-70.552;2023-07-29T09:27:05;92230.06;;;12.41;55.60
17521;BME280;8878;-33.370;-70.552;2023-07-29T09:29:36;92231.47;;;12.24;56.04
17521;BME280;8878;-33.370;-70.552;2023-07-29T09:32:19;92235.44;;;12.26;56.17
17521;BME280;8878;-33.370;-70.552;2023-07-29T09:34:49;92232.22;;;12.34;56.59
17521;BME280;8878;-33.370;-70.552;2023-07-29T09:37:18;92236.94;;;12.37;55.43
17521;BME280;8878;-33.370;-70.552;2023-07-29T09:39:51;92236.34;;;12.45;55.09
17521;BME280;8878;-33.370;-70.552;2023-07-29T09:42:21;92240.84;;;12.50;55.46
17521;BME280;8878;-33.370;-70.552;2023-07-29T09:44:52;92247.94;;;12.54;55.25
17521;BME280;8878;-33.370;-70.552;2023-07-29T09:47:23;92246.41;;;12.43;55.32
17521;BME280;8878;-33.370;-70.552;2023-07-29T09:49:53;92241.44;;;12.42;54.57
17521;BME280;8878;-33.370;-70.552;2023-07-29T09:52:26;92250.06;;;12.52;55.47
17521;BME280;8878;-33.370;-70.552;2023-07-29T09:54:58;92256.16;;;12.53;55.82
17521;BME280;8878;-33.370;-70.552;2023-07-29T09:57:28;92255.38;;;12.52;55.30
17521;BME280;8878;-33.370;-70.552;2023-07-29T09:59:59;92245.06;;;12.51;55.07
17521;BME280;8878;-33.370;-70.552;2023-07-29T10:02:31;92245.31;;;12.54;55.05
17521;BME280;8878;-33.370;-70.552;2023-07-29T10:05:02;92253.47;;;12.58;54.86
17521;BME280;8878;-33.370;-70.552;2023-07-29T10:07:34;92245.31;;;12.54;54.71
17521;BME280;8878;-33.370;-70.552;2023-07-29T10:10:08;92248.25;;;12.48;52.82
17521;BME280;8878;-33.370;-70.552;2023-07-29T10:12:40;92241.50;;;12.71;51.92
17521;BME280;8878;-33.370;-70.552;2023-07-29T10:15:11;92243.00;;;12.82;52.33
17521;BME280;8878;-33.370;-70.552;2023-07-29T10:17:41;92241.44;;;12.76;53.90
17521;BME280;8878;-33.370;-70.552;2023-07-29T10:20:11;92242.09;;;12.57;54.70
17521;BME280;8878;-33.370;-70.552;2023-07-29T10:22:41;92242.31;;;12.27;54.63
17521;BME280;8878;-33.370;-70.552;2023-07-29T10:25:16;92230.97;;;12.16;55.10
17521;BME280;8878;-33.370;-70.552;2023-07-29T10:27:49;92229.66;;;12.19;55.79
17521;BME280;8878;-33.370;-70.552;2023-07-29T10:30:19;92224.59;;;12.23;56.23
17521;BME280;8878;-33.370;-70.552;2023-07-29T10:32:49;92222.25;;;12.21;54.71
17521;BME280;8878;-33.370;-70.552;2023-07-29T10:35:19;92226.97;;;12.24;54.10
17521;BME280;8878;-33.370;-70.552;2023-07-29T10:37:48;92238.91;;;12.22;55.05
17521;BME280;8878;-33.370;-70.552;2023-07-29T10:40:22;92236.06;;;12.03;54.97
17521;BME280;8878;-33.370;-70.552;2023-07-29T10:43:03;92238.72;;;12.03;54.18
17521;BME280;8878;-33.370;-70.552;2023-07-29T10:45:39;92234.72;;;12.10;53.76
17521;BME280;8878;-33.370;-70.552;2023-07-29T10:48:11;92247.09;;;12.20;52.45
17521;BME280;8878;-33.370;-70.552;2023-07-29T10:50:41;92249.16;;;12.33;53.82
17521;BME280;8878;-33.370;-70.552;2023-07-29T10:53:10;92257.59;;;12.30;53.19
17521;BME280;8878;-33.370;-70.552;2023-07-29T10:55:43;92249.44;;;12.27;51.23
17521;BME280;8878;-33.370;-70.552;2023-07-29T10:58:14;92254.34;;;12.48;52.28
17521;BME280;8878;-33.370;-70.552;2023-07-29T11:00:45;92249.59;;;12.45;52.38
17521;BME280;8878;-33.370;-70.552;2023-07-29T11:03:14;92250.69;;;12.39;54.20
17521;BME280;8878;-33.370;-70.552;2023-07-29T11:05:45;92253.94;;;12.26;55.48
17521;BME280;8878;-33.370;-70.552;2023-07-29T11:08:19;92255.59;;;12.12;55.50
17521;BME280;8878;-33.370;-70.552;2023-07-29T11:11:08;92249.56;;;12.06;55.57
17521;BME280;8878;-33.370;-70.552;2023-07-29T11:13:38;92237.13;;;12.07;55.43
17521;BME280;8878;-33.370;-70.552;2023-07-29T11:16:11;92243.22;;;12.07;55.32
17521;BME280;8878;-33.370;-70.552;2023-07-29T11:18:46;92229.47;;;12.05;55.39
17521;BME280;8878;-33.370;-70.552;2023-07-29T11:21:17;92229.19;;;12.07;54.36
17521;BME280;8878;-33.370;-70.552;2023-07-29T11:23:47;92229.16;;;12.12;52.28
17521;BME280;8878;-33.370;-70.552;2023-07-29T11:26:19;92228.03;;;12.28;50.18
17521;BME280;8878;-33.370;-70.552;2023-07-29T11:28:49;92242.69;;;12.49;48.22
17521;BME280;8878;-33.370;-70.552;2023-07-29T11:31:19;92247.84;;;12.70;47.56
17521;BME280;8878;-33.370;-70.552;2023-07-29T11:33:49;92241.41;;;12.81;48.21
17521;BME280;8878;-33.370;-70.552;2023-07-29T11:36:19;92234.78;;;12.83;50.21
17521;BME280;8878;-33.370;-70.552;2023-07-29T11:38:48;92237.75;;;12.72;49.69
17521;BME280;8878;-33.370;-70.552;2023-07-29T11:41:22;92226.00;;;12.54;49.67
17521;BME280;8878;-33.370;-70.552;2023-07-29T11:43:51;92235.31;;;12.46;50.12
17521;BME280;8878;-33.370;-70.552;2023-07-29T11:46:24;92227.91;;;12.43;51.19
17521;BME280;8878;-33.370;-70.552;2023-07-29T11:48:54;92238.00;;;12.41;52.25
17521;BME280;8878;-33.370;-70.552;2023-07-29T11:51:25;92235.66;;;12.35;53.05
17521;BME280;8878;-33.370;-70.552;2023-07-29T11:53:55;92251.22;;;12.41;52.84
17521;BME280;8878;-33.370;-70.552;2023-07-29T11:56:26;92251.72;;;12.43;52.65
17521;BME280;8878;-33.370;-70.552;2023-07-29T11:58:57;92257.31;;;12.42;52.36
17521;BME280;8878;-33.370;-70.552;2023-07-29T12:01:27;92251.22;;;12.36;51.66
17521;BME280;8878;-33.370;-70.552;2023-07-29T12:03:57;92258.66;;;12.34;53.25
17521;BME280;8878;-33.370;-70.552;2023-07-29T12:06:27;92254.47;;;12.28;53.01
17521;BME280;8878;-33.370;-70.552;2023-07-29T12:08:58;92256.28;;;12.33;52.09
17521;BME280;8878;-33.370;-70.552;2023-07-29T12:11:29;92269.47;;;12.38;50.45
17521;BME280;8878;-33.370;-70.552;2023-07-29T12:14:00;92270.28;;;12.38;50.54
17521;BME280;8878;-33.370;-70.552;2023-07-29T12:16:30;92273.38;;;12.50;49.51
17521;BME280;8878;-33.370;-70.552;2023-07-29T12:19:01;92273.00;;;12.67;49.97
17521;BME280;8878;-33.370;-70.552;2023-07-29T12:21:31;92278.19;;;12.82;49.70
17521;BME280;8878;-33.370;-70.552;2023-07-29T12:24:00;92288.78;;;12.82;48.31
17521;BME280;8878;-33.370;-70.552;2023-07-29T12:26:33;92278.16;;;12.87;49.42
17521;BME280;8878;-33.370;-70.552;2023-07-29T12:29:12;92281.75;;;13.07;48.92
17521;BME280;8878;-33.370;-70.552;2023-07-29T12:31:43;92276.63;;;13.20;49.37
17521;BME280;8878;-33.370;-70.552;2023-07-29T12:34:18;92295.03;;;13.36;49.05
17521;BME280;8878;-33.370;-70.552;2023-07-29T12:36:49;92292.47;;;13.54;48.61
17521;BME280;8878;-33.370;-70.552;2023-07-29T12:39:21;92280.88;;;13.74;48.33
17521;BME280;8878;-33.370;-70.552;2023-07-29T12:41:54;92293.19;;;13.89;48.38
17521;BME280;8878;-33.370;-70.552;2023-07-29T12:44:24;92290.13;;;14.00;48.58
17521;BME280;8878;-33.370;-70.552;2023-07-29T12:46:54;92294.53;;;14.10;50.74
17521;BME280;8878;-33.370;-70.552;2023-07-29T12:49:23;92288.44;;;14.09;52.49
17521;BME280;8878;-33.370;-70.552;2023-07-29T12:51:52;92300.97;;;14.04;53.91
17521;BME280;8878;-33.370;-70.552;2023-07-29T12:54:22;92302.31;;;14.01;54.31
17521;BME280;8878;-33.370;-70.552;2023-07-29T12:56:53;92298.38;;;13.99;54.18